createdAt,value
2022-12-18T00:00:07.242Z,84.14
2022-12-18T00:00:17.233Z,84.00
2022-12-18T00:00:27.237Z,83.89
2022-12-18T00:00:37.238Z,83.78
2022-12-18T00:00:47.238Z,83.56
2022-12-18T00:00:57.238Z,83.61
2022-12-18T00:01:07.257Z,83.46
2022-12-18T00:01:17.330Z,83.35
2022-12-18T00:01:27.272Z,83.35
2022-12-18T00:01:37.336Z,83.35
2022-12-18T00:01:47.290Z,83.35
2022-12-18T00:01:57.270Z,83.50
2022-12-18T00:02:07.324Z,83.46
2022-12-18T00:02:17.247Z,83.46
2022-12-18T00:02:27.293Z,83.46
2022-12-18T00:02:37.381Z,83.50
2022-12-18T00:02:47.449Z,83.46
2022-12-18T00:02:57.425Z,83.39
2022-12-18T00:03:07.379Z,83.28
2022-12-18T00:03:17.339Z,83.17
2022-12-18T00:03:27.342Z,83.07
2022-12-18T00:03:37.883Z,82.96
2022-12-18T00:03:47.351Z,82.96
2022-12-18T00:03:57.516Z,82.86
2022-12-18T00:04:07.515Z,82.75
2022-12-18T00:04:17.418Z,82.86
2022-12-18T00:04:27.357Z,82.86
2022-12-18T00:04:37.256Z,82.86
2022-12-18T00:04:47.260Z,82.96
2022-12-18T00:04:57.261Z,82.96
2022-12-18T00:05:07.273Z,82.86
2022-12-18T00:05:17.264Z,82.75
2022-12-18T00:05:27.263Z,82.64
2022-12-18T00:05:37.268Z,82.53
2022-12-18T00:05:47.266Z,82.32
2022-12-18T00:05:57.268Z,82.21
2022-12-18T00:06:07.281Z,81.99
2022-12-18T00:06:17.274Z,81.89
2022-12-18T00:06:27.272Z,81.68
2022-12-18T00:06:37.272Z,81.57
2022-12-18T00:06:47.272Z,81.46
2022-12-18T00:06:57.273Z,81.39
2022-12-18T00:07:07.281Z,81.29
2022-12-18T00:07:17.277Z,81.29
2022-12-18T00:07:27.276Z,81.18
2022-12-18T00:07:37.264Z,81.18
2022-12-18T00:07:47.279Z,81.07
2022-12-18T00:07:57.285Z,80.96
2022-12-18T00:08:09.297Z,80.96
2022-12-18T00:08:17.286Z,80.96
2022-12-18T00:08:27.280Z,80.96
2022-12-18T00:08:37.282Z,80.96
2022-12-18T00:08:47.288Z,80.96
2022-12-18T00:08:57.286Z,81.07
2022-12-18T00:09:07.304Z,81.07
2022-12-18T00:09:17.295Z,81.07
2022-12-18T00:09:31.190Z,81.18
2022-12-18T00:09:39.539Z,81.18
2022-12-18T00:09:47.316Z,81.29
2022-12-18T00:09:57.289Z,81.29
2022-12-18T00:10:07.297Z,81.39
2022-12-18T00:10:17.298Z,81.39
2022-12-18T00:10:27.291Z,81.50
2022-12-18T00:10:37.295Z,81.60
2022-12-18T00:10:47.296Z,81.82
2022-12-18T00:10:59.524Z,82.03
2022-12-18T00:11:07.306Z,82.25
2022-12-18T00:11:17.300Z,82.46
2022-12-18T00:11:27.298Z,82.78
2022-12-18T00:11:37.297Z,83.00
2022-12-18T00:11:47.300Z,83.21
2022-12-18T00:11:57.302Z,83.43
2022-12-18T00:12:29.817Z,84.28
2022-12-18T00:12:37.306Z,84.71
2022-12-18T00:12:47.309Z,85.03
2022-12-18T00:12:57.315Z,85.46
2022-12-18T00:13:09.970Z,85.78
2022-12-18T00:13:17.320Z,86.10
2022-12-18T00:13:27.312Z,86.43
2022-12-18T00:13:37.653Z,86.74
2022-12-18T00:13:47.313Z,87.07
2022-12-18T00:13:57.314Z,87.28
2022-12-18T00:14:07.367Z,87.49
2022-12-18T00:14:17.318Z,87.78
2022-12-18T00:14:27.316Z,88.14
2022-12-18T00:14:37.319Z,88.31
2022-12-18T00:14:47.319Z,88.53
2022-12-18T00:14:57.320Z,88.74
2022-12-18T00:15:07.338Z,88.95
2022-12-18T00:15:17.322Z,89.17
2022-12-18T00:15:27.327Z,89.39
2022-12-18T00:15:37.325Z,89.60
2022-12-18T00:15:47.338Z,89.81
2022-12-18T00:15:57.361Z,90.03
2022-12-18T00:16:07.419Z,90.13
2022-12-18T00:16:17.381Z,90.34
2022-12-18T00:16:27.404Z,90.56
2022-12-18T00:16:37.368Z,90.78
2022-12-18T00:16:47.334Z,90.84
2022-12-18T00:16:57.330Z,91.09
2022-12-18T00:17:07.339Z,91.06
2022-12-18T00:17:17.332Z,91.16
2022-12-18T00:17:27.335Z,91.16
2022-12-18T00:17:37.334Z,91.06
2022-12-18T00:17:47.335Z,90.95
2022-12-18T00:17:57.340Z,90.84
2022-12-18T00:18:07.347Z,90.73
2022-12-18T00:18:20.556Z,90.62
2022-12-18T00:18:27.339Z,90.31
2022-12-18T00:18:37.683Z,90.09
2022-12-18T00:18:47.341Z,89.77
2022-12-18T00:18:57.343Z,89.67
2022-12-18T00:19:07.357Z,89.45
2022-12-18T00:19:17.342Z,89.13
2022-12-18T00:19:27.348Z,88.92
2022-12-18T00:19:37.344Z,88.59
2022-12-18T00:19:47.345Z,88.17
2022-12-18T00:19:57.345Z,87.95
2022-12-18T00:20:07.365Z,87.74
2022-12-18T00:20:17.349Z,87.52
2022-12-18T00:20:27.350Z,87.52
2022-12-18T00:20:37.350Z,87.52
2022-12-18T00:20:47.361Z,87.52
2022-12-18T00:20:57.353Z,87.52
2022-12-18T00:21:07.368Z,87.31
2022-12-18T00:21:17.357Z,86.99
2022-12-18T00:21:27.358Z,86.67
2022-12-18T00:21:37.354Z,86.35
2022-12-18T00:21:47.355Z,86.03
2022-12-18T00:21:57.359Z,85.82
2022-12-18T00:22:07.376Z,85.82
2022-12-18T00:22:17.365Z,85.71
2022-12-18T00:22:27.365Z,85.49
2022-12-18T00:22:37.369Z,85.28
2022-12-18T00:22:47.376Z,85.17
2022-12-18T00:22:57.372Z,85.17
2022-12-18T00:23:07.383Z,85.28
2022-12-18T00:23:17.369Z,85.38
2022-12-18T00:23:27.372Z,85.60
2022-12-18T00:23:37.865Z,85.71
2022-12-18T00:23:47.370Z,85.82
2022-12-18T00:23:57.375Z,86.03
2022-12-18T00:24:07.393Z,86.13
2022-12-18T00:24:17.375Z,86.13
2022-12-18T00:24:27.376Z,86.13
2022-12-18T00:24:37.377Z,85.92
2022-12-18T00:24:47.377Z,85.82
2022-12-18T00:24:57.377Z,85.82
2022-12-18T00:25:07.394Z,85.71
2022-12-18T00:25:17.381Z,85.71
2022-12-18T00:25:27.381Z,85.71
2022-12-18T00:25:37.392Z,85.71
2022-12-18T00:25:47.385Z,85.82
2022-12-18T00:25:57.391Z,85.92
2022-12-18T00:26:07.398Z,85.99
2022-12-18T00:26:17.387Z,86.10
2022-12-18T00:26:27.387Z,86.13
2022-12-18T00:26:37.387Z,86.10
2022-12-18T00:26:47.391Z,86.10
2022-12-18T00:26:57.395Z,86.20
2022-12-18T00:27:07.406Z,86.20
2022-12-18T00:27:17.391Z,86.20
2022-12-18T00:27:27.392Z,86.10
2022-12-18T00:27:37.395Z,86.10
2022-12-18T00:27:47.396Z,85.99
2022-12-18T00:27:57.396Z,85.88
2022-12-18T00:28:07.413Z,85.77
2022-12-18T00:28:17.402Z,85.77
2022-12-18T00:28:27.406Z,85.77
2022-12-18T00:28:37.402Z,85.88
2022-12-18T00:28:47.405Z,85.88
2022-12-18T00:28:57.403Z,85.88
2022-12-18T00:29:07.431Z,85.77
2022-12-18T00:29:17.405Z,85.67
2022-12-18T00:29:27.411Z,85.56
2022-12-18T00:29:37.410Z,85.35
2022-12-18T00:29:47.408Z,85.03
2022-12-18T00:29:57.404Z,84.70
2022-12-18T00:30:07.424Z,84.49
2022-12-18T00:30:17.408Z,84.17
2022-12-18T00:30:27.410Z,83.95
2022-12-18T00:30:37.419Z,83.85
2022-12-18T00:30:47.419Z,83.74
2022-12-18T00:30:57.421Z,83.64
2022-12-18T00:31:07.461Z,83.53
2022-12-18T00:31:17.469Z,83.31
2022-12-18T00:31:27.458Z,83.10
2022-12-18T00:31:37.462Z,82.89
2022-12-18T00:31:47.491Z,82.67
2022-12-18T00:31:57.458Z,82.46
2022-12-18T00:32:07.437Z,82.14
2022-12-18T00:32:17.427Z,81.92
2022-12-18T00:32:27.428Z,81.60
2022-12-18T00:32:38.177Z,81.28
2022-12-18T00:32:47.437Z,81.07
2022-12-18T00:32:57.445Z,80.85
2022-12-18T00:33:07.452Z,80.64
2022-12-18T00:33:17.431Z,80.54
2022-12-18T00:33:27.439Z,80.32
2022-12-18T00:33:37.846Z,80.32
2022-12-18T00:33:47.450Z,80.21
2022-12-18T00:33:57.437Z,80.00
2022-12-18T00:34:07.463Z,79.79
2022-12-18T00:34:17.442Z,79.68
2022-12-18T00:34:27.440Z,79.57
2022-12-18T00:34:37.448Z,79.57
2022-12-18T00:34:47.445Z,79.57
2022-12-18T00:34:57.448Z,79.68
2022-12-18T00:35:07.464Z,79.79
2022-12-18T00:35:17.447Z,79.79
2022-12-18T00:35:27.447Z,79.90
2022-12-18T00:35:37.455Z,80.32
2022-12-18T00:35:47.452Z,80.85
2022-12-18T00:35:57.451Z,81.39
2022-12-18T00:36:07.463Z,81.71
2022-12-18T00:36:17.458Z,82.14
2022-12-18T00:36:27.452Z,82.35
2022-12-18T00:36:37.462Z,82.67
2022-12-18T00:36:47.455Z,82.78
2022-12-18T00:36:57.456Z,83.00
2022-12-18T00:37:07.468Z,83.10
2022-12-18T00:37:20.270Z,83.10
2022-12-18T00:37:27.461Z,83.10
2022-12-18T00:37:37.460Z,83.10
2022-12-18T00:37:47.459Z,83.10
2022-12-18T00:37:57.462Z,83.00
2022-12-18T00:38:07.475Z,83.00
2022-12-18T00:38:17.476Z,83.00
2022-12-18T00:38:27.474Z,83.00
2022-12-18T00:38:37.465Z,83.00
2022-12-18T00:38:47.466Z,83.10
2022-12-18T00:38:57.473Z,83.10
2022-12-18T00:39:07.499Z,83.21
2022-12-18T00:39:17.470Z,83.31
2022-12-18T00:39:27.471Z,83.53
2022-12-18T00:39:37.473Z,83.85
2022-12-18T00:39:47.472Z,84.17
2022-12-18T00:39:57.475Z,84.49
2022-12-18T00:40:07.489Z,84.70
2022-12-18T00:40:17.476Z,84.92
2022-12-18T00:40:27.482Z,85.13
2022-12-18T00:40:37.478Z,85.35
2022-12-18T00:40:47.480Z,85.46
2022-12-18T00:40:57.480Z,85.56
2022-12-18T00:41:07.484Z,85.67
2022-12-18T00:41:17.482Z,85.77
2022-12-18T00:41:27.486Z,85.99
2022-12-18T00:41:37.486Z,86.10
2022-12-18T00:41:47.484Z,86.41
2022-12-18T00:41:57.485Z,86.63
2022-12-18T00:42:07.498Z,86.74
2022-12-18T00:42:17.488Z,87.06
2022-12-18T00:42:27.494Z,87.38
2022-12-18T00:42:37.489Z,87.59
2022-12-18T00:42:47.491Z,87.77
2022-12-18T00:42:57.491Z,87.92
2022-12-18T00:43:07.525Z,88.09
2022-12-18T00:43:17.493Z,88.30
2022-12-18T00:43:27.499Z,88.41
2022-12-18T00:43:37.824Z,88.51
2022-12-18T00:43:47.496Z,88.51
2022-12-18T00:43:57.498Z,88.51
2022-12-18T00:44:07.533Z,88.30
2022-12-18T00:44:17.497Z,88.09
2022-12-18T00:44:27.499Z,87.77
2022-12-18T00:44:37.505Z,87.55
2022-12-18T00:44:47.502Z,87.45
2022-12-18T00:44:57.503Z,87.23
2022-12-18T00:45:12.359Z,87.13
2022-12-18T00:45:18.506Z,87.02
2022-12-18T00:45:27.609Z,86.91
2022-12-18T00:45:37.533Z,86.80
2022-12-18T00:45:47.605Z,86.59
2022-12-18T00:45:57.581Z,86.38
2022-12-18T00:46:07.586Z,85.95
2022-12-18T00:46:17.595Z,85.41
2022-12-18T00:46:27.512Z,84.88
2022-12-18T00:46:37.532Z,84.34
2022-12-18T00:46:47.511Z,83.92
2022-12-18T00:46:57.512Z,83.49
2022-12-18T00:47:07.531Z,83.28
2022-12-18T00:47:17.513Z,83.06
2022-12-18T00:47:27.515Z,82.85
2022-12-18T00:47:37.524Z,82.53
2022-12-18T00:47:47.519Z,82.21
2022-12-18T00:47:57.521Z,81.78
2022-12-18T00:48:07.545Z,81.57
2022-12-18T00:48:17.518Z,81.35
2022-12-18T00:48:27.520Z,81.24
2022-12-18T00:48:37.534Z,81.14
2022-12-18T00:48:47.522Z,81.03
2022-12-18T00:48:57.523Z,81.18
2022-12-18T00:49:07.570Z,81.28
2022-12-18T00:49:17.529Z,81.71
2022-12-18T00:49:27.531Z,82.14
2022-12-18T00:49:37.536Z,82.57
2022-12-18T00:49:47.562Z,83.00
2022-12-18T00:49:57.528Z,83.21
2022-12-18T00:50:07.549Z,83.21
2022-12-18T00:50:17.533Z,83.10
2022-12-18T00:50:27.535Z,83.00
2022-12-18T00:50:37.543Z,82.89
2022-12-18T00:50:47.535Z,82.78
2022-12-18T00:50:57.537Z,82.89
2022-12-18T00:51:07.546Z,83.00
2022-12-18T00:51:17.538Z,83.10
2022-12-18T00:51:27.540Z,83.21
2022-12-18T00:51:37.552Z,83.31
2022-12-18T00:51:47.544Z,83.42
2022-12-18T00:51:57.545Z,83.42
2022-12-18T00:52:07.564Z,83.64
2022-12-18T00:52:17.547Z,83.74
2022-12-18T00:52:27.544Z,83.74
2022-12-18T00:52:37.553Z,83.74
2022-12-18T00:52:47.550Z,83.64
2022-12-18T00:52:57.552Z,83.74
2022-12-18T00:53:07.561Z,83.85
2022-12-18T00:53:17.555Z,84.06
2022-12-18T00:53:27.555Z,84.17
2022-12-18T00:53:37.913Z,84.28
2022-12-18T00:53:47.570Z,84.38
2022-12-18T00:53:57.558Z,84.49
2022-12-18T00:54:07.567Z,84.60
2022-12-18T00:54:17.562Z,84.70
2022-12-18T00:54:27.562Z,84.92
2022-12-18T00:54:37.565Z,85.24
2022-12-18T00:54:47.564Z,85.46
2022-12-18T00:55:00.661Z,85.67
2022-12-18T00:55:08.570Z,85.88
2022-12-18T00:55:17.563Z,85.99
2022-12-18T00:55:27.567Z,86.20
2022-12-18T00:55:37.572Z,86.41
2022-12-18T00:55:47.564Z,86.85
2022-12-18T00:55:57.575Z,87.23
2022-12-18T00:56:07.575Z,87.55
2022-12-18T00:56:17.569Z,87.77
2022-12-18T00:56:27.574Z,88.09
2022-12-18T00:56:48.041Z,88.30
2022-12-18T00:56:49.717Z,88.51
2022-12-18T00:56:57.569Z,88.62
2022-12-18T00:57:07.584Z,88.73
2022-12-18T00:57:17.572Z,88.84
2022-12-18T00:57:27.579Z,88.95
2022-12-18T00:57:37.580Z,89.05
2022-12-18T00:57:47.599Z,89.37
2022-12-18T00:57:57.579Z,89.59
2022-12-18T00:58:07.591Z,89.90
2022-12-18T00:58:17.578Z,90.12
2022-12-18T00:58:27.584Z,90.23
2022-12-18T00:58:37.581Z,90.44
2022-12-18T00:58:47.588Z,90.55
2022-12-18T00:58:57.589Z,90.66
2022-12-18T00:59:07.599Z,90.87
2022-12-18T00:59:17.591Z,90.94
2022-12-18T00:59:27.588Z,91.15
2022-12-18T00:59:37.589Z,91.25
2022-12-18T00:59:47.590Z,91.36
2022-12-18T00:59:57.595Z,91.47
2022-12-18T01:00:07.605Z,91.58
2022-12-18T01:00:17.591Z,91.58
2022-12-18T01:00:27.592Z,91.68
2022-12-18T01:00:37.693Z,91.79
2022-12-18T01:00:47.667Z,91.89
2022-12-18T01:00:57.627Z,91.89
2022-12-18T01:01:07.655Z,92.00
2022-12-18T01:01:17.708Z,92.00
2022-12-18T01:01:27.650Z,92.00
2022-12-18T01:01:37.778Z,91.89
2022-12-18T01:01:48.010Z,91.47
2022-12-18T01:01:57.742Z,90.72
2022-12-18T01:02:07.701Z,89.97
2022-12-18T01:02:17.843Z,89.23
2022-12-18T01:02:27.714Z,88.79
2022-12-18T01:02:37.804Z,88.48
2022-12-18T01:02:47.699Z,88.26
2022-12-18T01:02:57.651Z,88.05
2022-12-18T01:03:07.736Z,87.94
2022-12-18T01:03:17.655Z,87.73
2022-12-18T01:03:27.612Z,87.51
2022-12-18T01:03:38.061Z,87.30
2022-12-18T01:03:47.635Z,87.19
2022-12-18T01:03:57.612Z,86.98
2022-12-18T01:04:07.626Z,86.87
2022-12-18T01:04:17.619Z,86.66
2022-12-18T01:04:27.614Z,86.55
2022-12-18T01:04:37.620Z,86.34
2022-12-18T01:04:47.616Z,86.02
2022-12-18T01:04:57.617Z,85.59
2022-12-18T01:05:07.627Z,85.16
2022-12-18T01:05:17.620Z,84.63
2022-12-18T01:05:27.623Z,84.20
2022-12-18T01:05:37.645Z,83.78
2022-12-18T01:05:47.627Z,83.45
2022-12-18T01:05:57.628Z,83.35
2022-12-18T01:06:07.638Z,83.14
2022-12-18T01:06:17.633Z,83.24
2022-12-18T01:06:27.626Z,83.24
2022-12-18T01:06:37.631Z,83.35
2022-12-18T01:06:47.630Z,83.35
2022-12-18T01:06:57.631Z,83.35
2022-12-18T01:07:07.642Z,83.45
2022-12-18T01:07:17.630Z,83.56
2022-12-18T01:07:27.631Z,83.78
2022-12-18T01:07:37.664Z,83.88
2022-12-18T01:07:47.633Z,83.88
2022-12-18T01:07:57.635Z,83.88
2022-12-18T01:08:07.655Z,83.78
2022-12-18T01:08:17.638Z,83.78
2022-12-18T01:08:27.639Z,83.78
2022-12-18T01:08:37.643Z,83.88
2022-12-18T01:08:47.643Z,83.88
2022-12-18T01:08:57.640Z,83.99
2022-12-18T01:09:07.655Z,84.09
2022-12-18T01:09:17.646Z,84.09
2022-12-18T01:09:27.645Z,84.09
2022-12-18T01:09:37.646Z,83.99
2022-12-18T01:09:47.644Z,83.88
2022-12-18T01:09:57.644Z,83.78
2022-12-18T01:10:07.660Z,83.67
2022-12-18T01:10:17.649Z,83.67
2022-12-18T01:10:27.650Z,83.56
2022-12-18T01:10:37.651Z,83.56
2022-12-18T01:10:47.650Z,83.45
2022-12-18T01:10:57.652Z,83.45
2022-12-18T01:11:07.676Z,83.35
2022-12-18T01:11:17.654Z,83.35
2022-12-18T01:11:27.652Z,83.24
2022-12-18T01:11:37.653Z,83.35
2022-12-18T01:11:47.658Z,83.35
2022-12-18T01:11:57.657Z,83.35
2022-12-18T01:12:07.674Z,83.35
2022-12-18T01:12:17.689Z,83.56
2022-12-18T01:12:27.660Z,83.78
2022-12-18T01:12:37.664Z,84.20
2022-12-18T01:12:47.663Z,84.63
2022-12-18T01:12:57.664Z,85.13
2022-12-18T01:13:07.677Z,85.66
2022-12-18T01:13:17.671Z,86.09
2022-12-18T01:13:27.667Z,86.41
2022-12-18T01:13:38.008Z,86.62
2022-12-18T01:13:47.669Z,86.83
2022-12-18T01:13:57.669Z,86.83
2022-12-18T01:14:07.682Z,86.83
2022-12-18T01:14:17.677Z,86.62
2022-12-18T01:14:27.672Z,86.52
2022-12-18T01:14:37.677Z,86.41
2022-12-18T01:14:47.675Z,86.30
2022-12-18T01:14:57.676Z,85.88
2022-12-18T01:15:07.689Z,85.34
2022-12-18T01:15:17.682Z,84.91
2022-12-18T01:15:27.680Z,84.48
2022-12-18T01:15:37.695Z,84.17
2022-12-18T01:15:47.685Z,83.95
2022-12-18T01:15:57.688Z,83.84
2022-12-18T01:16:07.772Z,83.74
2022-12-18T01:16:17.714Z,83.63
2022-12-18T01:16:27.792Z,83.42
2022-12-18T01:16:37.770Z,83.20
2022-12-18T01:16:47.774Z,83.10
2022-12-18T01:16:57.690Z,83.10
2022-12-18T01:17:07.702Z,82.99
2022-12-18T01:17:17.690Z,82.89
2022-12-18T01:17:27.693Z,82.78
2022-12-18T01:17:37.691Z,82.67
2022-12-18T01:17:47.692Z,82.67
2022-12-18T01:17:57.696Z,82.56
2022-12-18T01:18:07.704Z,82.46
2022-12-18T01:18:17.695Z,82.35
2022-12-18T01:18:27.695Z,82.24
2022-12-18T01:18:37.698Z,82.14
2022-12-18T01:18:47.699Z,81.92
2022-12-18T01:18:57.700Z,81.92
2022-12-18T01:19:07.702Z,81.82
2022-12-18T01:19:17.720Z,81.82
2022-12-18T01:19:27.701Z,81.82
2022-12-18T01:19:37.701Z,81.82
2022-12-18T01:19:47.702Z,81.82
2022-12-18T01:19:57.705Z,81.71
2022-12-18T01:20:07.710Z,81.71
2022-12-18T01:20:17.716Z,81.71
2022-12-18T01:20:27.706Z,81.71
2022-12-18T01:20:37.708Z,81.71
2022-12-18T01:20:47.709Z,81.71
2022-12-18T01:20:57.713Z,81.71
2022-12-18T01:21:07.713Z,81.71
2022-12-18T01:21:17.724Z,81.71
2022-12-18T01:21:27.713Z,81.82
2022-12-18T01:21:37.715Z,81.82
2022-12-18T01:21:47.716Z,81.82
2022-12-18T01:21:57.718Z,81.92
2022-12-18T01:22:07.718Z,81.92
2022-12-18T01:22:17.734Z,82.03
2022-12-18T01:22:27.719Z,82.14
2022-12-18T01:22:37.720Z,82.24
2022-12-18T01:22:47.724Z,82.35
2022-12-18T01:22:57.722Z,82.56
2022-12-18T01:23:07.725Z,82.67
2022-12-18T01:23:17.740Z,82.78
2022-12-18T01:23:27.729Z,82.89
2022-12-18T01:23:38.225Z,82.99
2022-12-18T01:23:47.735Z,83.20
2022-12-18T01:23:57.727Z,83.31
2022-12-18T01:24:07.730Z,83.42
2022-12-18T01:24:17.745Z,83.53
2022-12-18T01:24:27.736Z,83.53
2022-12-18T01:24:37.732Z,83.63
2022-12-18T01:24:47.733Z,83.74
2022-12-18T01:24:57.732Z,83.84
2022-12-18T01:25:07.735Z,83.95
2022-12-18T01:25:17.755Z,84.06
2022-12-18T01:25:27.738Z,84.17
2022-12-18T01:25:37.739Z,84.27
2022-12-18T01:25:47.741Z,84.38
2022-12-18T01:25:57.742Z,84.48
2022-12-18T01:26:07.743Z,84.70
2022-12-18T01:26:17.754Z,84.91
2022-12-18T01:26:27.747Z,85.02
2022-12-18T01:26:37.746Z,85.24
2022-12-18T01:26:47.748Z,85.34
2022-12-18T01:26:57.746Z,85.34
2022-12-18T01:27:07.747Z,85.45
2022-12-18T01:27:17.758Z,85.45
2022-12-18T01:27:27.750Z,85.55
2022-12-18T01:27:37.751Z,85.55
2022-12-18T01:27:47.766Z,85.66
2022-12-18T01:27:57.780Z,85.77
2022-12-18T01:28:07.752Z,85.88
2022-12-18T01:28:17.755Z,86.09
2022-12-18T01:28:27.752Z,86.09
2022-12-18T01:28:37.759Z,86.19
2022-12-18T01:28:47.757Z,86.30
2022-12-18T01:28:57.755Z,86.41
2022-12-18T01:29:07.756Z,86.52
2022-12-18T01:29:17.778Z,86.62
2022-12-18T01:29:27.760Z,86.73
2022-12-18T01:29:37.762Z,86.83
2022-12-18T01:29:47.761Z,87.05
2022-12-18T01:29:57.766Z,87.26
2022-12-18T01:30:07.768Z,87.37
2022-12-18T01:30:17.767Z,87.59
2022-12-18T01:30:27.779Z,87.69
2022-12-18T01:30:37.766Z,87.80
2022-12-18T01:30:47.765Z,87.90
2022-12-18T01:30:57.767Z,88.12
2022-12-18T01:31:07.767Z,88.33
2022-12-18T01:31:17.781Z,88.54
2022-12-18T01:31:27.867Z,88.65
2022-12-18T01:31:37.789Z,88.76
2022-12-18T01:31:47.833Z,88.76
2022-12-18T01:31:57.814Z,88.76
2022-12-18T01:32:07.805Z,88.54
2022-12-18T01:32:17.778Z,88.44
2022-12-18T01:32:27.791Z,88.23
2022-12-18T01:32:37.785Z,88.01
2022-12-18T01:32:47.788Z,87.69
2022-12-18T01:32:57.783Z,87.37
2022-12-18T01:33:07.783Z,87.05
2022-12-18T01:33:17.801Z,86.94
2022-12-18T01:33:27.801Z,86.83
2022-12-18T01:33:38.223Z,86.73
2022-12-18T01:33:47.792Z,86.52
2022-12-18T01:33:57.789Z,86.41
2022-12-18T01:34:07.789Z,86.30
2022-12-18T01:34:17.802Z,86.19
2022-12-18T01:34:27.803Z,85.88
2022-12-18T01:34:37.792Z,85.45
2022-12-18T01:34:47.795Z,85.13
2022-12-18T01:34:57.796Z,85.02
2022-12-18T01:35:07.797Z,85.02
2022-12-18T01:35:17.800Z,85.02
2022-12-18T01:35:27.811Z,85.13
2022-12-18T01:35:37.799Z,85.24
2022-12-18T01:35:47.799Z,85.24
2022-12-18T01:35:57.808Z,85.13
2022-12-18T01:36:07.804Z,84.81
2022-12-18T01:36:17.802Z,84.48
2022-12-18T01:36:27.819Z,84.17
2022-12-18T01:36:37.807Z,83.95
2022-12-18T01:36:47.807Z,83.63
2022-12-18T01:36:57.809Z,83.42
2022-12-18T01:37:07.807Z,83.14
2022-12-18T01:37:17.811Z,83.03
2022-12-18T01:37:27.821Z,82.81
2022-12-18T01:37:37.812Z,82.71
2022-12-18T01:37:47.814Z,82.71
2022-12-18T01:37:57.815Z,82.60
2022-12-18T01:38:07.814Z,82.60
2022-12-18T01:38:17.815Z,82.60
2022-12-18T01:38:27.831Z,82.60
2022-12-18T01:38:37.817Z,82.71
2022-12-18T01:38:47.819Z,82.81
2022-12-18T01:38:57.829Z,82.92
2022-12-18T01:39:07.820Z,82.92
2022-12-18T01:39:17.833Z,82.92
2022-12-18T01:39:27.839Z,82.92
2022-12-18T01:39:37.824Z,82.92
2022-12-18T01:39:47.824Z,82.92
2022-12-18T01:39:57.831Z,83.03
2022-12-18T01:40:07.827Z,83.35
2022-12-18T01:40:17.830Z,83.67
2022-12-18T01:40:27.842Z,83.99
2022-12-18T01:40:37.830Z,84.31
2022-12-18T01:40:47.831Z,84.63
2022-12-18T01:40:57.831Z,84.95
2022-12-18T01:41:07.836Z,85.16
2022-12-18T01:41:17.833Z,85.38
2022-12-18T01:41:27.845Z,85.59
2022-12-18T01:41:37.835Z,85.80
2022-12-18T01:41:47.835Z,85.91
2022-12-18T01:41:57.837Z,86.02
2022-12-18T01:42:07.841Z,86.23
2022-12-18T01:42:17.841Z,86.34
2022-12-18T01:42:27.856Z,86.44
2022-12-18T01:42:37.842Z,86.55
2022-12-18T01:42:47.844Z,86.66
2022-12-18T01:42:57.847Z,86.66
2022-12-18T01:43:07.846Z,86.77
2022-12-18T01:43:17.846Z,86.87
2022-12-18T01:43:27.868Z,86.87
2022-12-18T01:43:38.299Z,86.98
2022-12-18T01:43:47.850Z,86.98
2022-12-18T01:43:57.856Z,86.98
2022-12-18T01:44:07.853Z,87.08
2022-12-18T01:44:17.866Z,87.08
2022-12-18T01:44:27.871Z,87.08
2022-12-18T01:44:37.857Z,86.87
2022-12-18T01:44:47.855Z,86.77
2022-12-18T01:44:57.886Z,86.77
2022-12-18T01:45:07.858Z,86.87
2022-12-18T01:45:17.860Z,86.98
2022-12-18T01:45:27.924Z,87.19
2022-12-18T01:45:37.966Z,87.30
2022-12-18T01:45:47.958Z,87.41
2022-12-18T01:45:57.885Z,87.41
2022-12-18T01:46:07.925Z,87.51
2022-12-18T01:46:17.891Z,87.51
2022-12-18T01:46:27.886Z,87.62
2022-12-18T01:46:37.866Z,87.62
2022-12-18T01:46:47.869Z,87.84
2022-12-18T01:46:57.867Z,88.05
2022-12-18T01:47:07.871Z,88.15
2022-12-18T01:47:17.871Z,88.15
2022-12-18T01:47:27.891Z,88.15
2022-12-18T01:47:37.871Z,87.94
2022-12-18T01:47:47.873Z,87.62
2022-12-18T01:47:57.875Z,87.30
2022-12-18T01:48:07.874Z,86.98
2022-12-18T01:48:17.875Z,86.77
2022-12-18T01:48:27.884Z,86.44
2022-12-18T01:48:37.877Z,86.23
2022-12-18T01:48:47.881Z,86.02
2022-12-18T01:48:57.880Z,85.80
2022-12-18T01:49:07.877Z,85.70
2022-12-18T01:49:17.915Z,85.59
2022-12-18T01:49:27.892Z,85.49
2022-12-18T01:49:37.882Z,85.38
2022-12-18T01:49:47.885Z,85.38
2022-12-18T01:49:57.885Z,85.38
2022-12-18T01:50:07.891Z,85.38
2022-12-18T01:50:17.887Z,85.27
2022-12-18T01:50:27.905Z,85.27
2022-12-18T01:50:37.890Z,85.27
2022-12-18T01:50:47.890Z,85.38
2022-12-18T01:50:57.891Z,85.49
2022-12-18T01:51:07.893Z,85.49
2022-12-18T01:51:17.893Z,85.59
2022-12-18T01:51:27.906Z,85.70
2022-12-18T01:51:37.893Z,85.70
2022-12-18T01:51:47.900Z,85.80
2022-12-18T01:51:57.899Z,85.80
2022-12-18T01:52:07.899Z,85.91
2022-12-18T01:52:17.901Z,85.91
2022-12-18T01:52:27.919Z,85.91
2022-12-18T01:52:37.903Z,85.91
2022-12-18T01:52:47.967Z,85.91
2022-12-18T01:52:57.906Z,85.91
2022-12-18T01:53:07.904Z,85.91
2022-12-18T01:53:17.906Z,85.80
2022-12-18T01:53:27.919Z,85.80
2022-12-18T01:53:38.291Z,85.70
2022-12-18T01:53:47.910Z,85.59
2022-12-18T01:53:57.909Z,85.59
2022-12-18T01:54:07.908Z,85.59
2022-12-18T01:54:17.924Z,85.59
2022-12-18T01:54:27.926Z,85.70
2022-12-18T01:54:37.911Z,85.70
2022-12-18T01:54:47.921Z,85.70
2022-12-18T01:54:57.914Z,85.80
2022-12-18T01:55:07.913Z,85.91
2022-12-18T01:55:17.914Z,86.13
2022-12-18T01:55:27.933Z,86.34
2022-12-18T01:55:37.916Z,86.44
2022-12-18T01:55:47.927Z,86.55
2022-12-18T01:55:57.920Z,86.66
2022-12-18T01:56:07.932Z,86.77
2022-12-18T01:56:17.921Z,86.87
2022-12-18T01:56:27.951Z,86.87
2022-12-18T01:56:37.923Z,86.98
2022-12-18T01:56:47.927Z,86.94
2022-12-18T01:56:57.934Z,86.94
2022-12-18T01:57:07.929Z,87.08
2022-12-18T01:57:17.929Z,87.05
2022-12-18T01:57:27.942Z,87.05
2022-12-18T01:57:37.932Z,87.05
2022-12-18T01:57:47.962Z,87.16
2022-12-18T01:57:57.932Z,87.26
2022-12-18T01:58:07.935Z,87.37
2022-12-18T01:58:17.935Z,87.41
2022-12-18T01:58:27.945Z,87.26
2022-12-18T01:58:37.935Z,87.26
2022-12-18T01:58:47.935Z,87.26
2022-12-18T01:58:57.937Z,87.26
2022-12-18T01:59:07.937Z,87.16
2022-12-18T01:59:17.950Z,87.16
2022-12-18T01:59:27.954Z,87.05
2022-12-18T01:59:37.937Z,86.94
2022-12-18T01:59:47.938Z,86.83
2022-12-18T01:59:57.949Z,86.73
2022-12-18T02:00:07.942Z,86.62
2022-12-18T02:00:17.948Z,86.41
2022-12-18T02:00:27.976Z,86.19
2022-12-18T02:00:37.960Z,85.98
2022-12-18T02:00:47.974Z,85.88
2022-12-18T02:00:58.007Z,85.77
2022-12-18T02:01:07.970Z,85.55
2022-12-18T02:01:18.121Z,85.24
2022-12-18T02:01:28.151Z,84.91
2022-12-18T02:01:38.105Z,84.59
2022-12-18T02:01:48.119Z,84.38
2022-12-18T02:01:58.154Z,84.17
2022-12-18T02:02:08.180Z,83.95
2022-12-18T02:02:18.133Z,83.84
2022-12-18T02:02:28.086Z,83.74
2022-12-18T02:02:38.049Z,83.63
2022-12-18T02:02:48.124Z,83.53
2022-12-18T02:02:58.076Z,83.31
2022-12-18T02:03:08.022Z,83.20
2022-12-18T02:03:18.038Z,82.92
2022-12-18T02:03:28.026Z,82.71
2022-12-18T02:03:38.343Z,82.50
2022-12-18T02:03:47.962Z,82.39
2022-12-18T02:03:57.963Z,82.39
2022-12-18T02:04:07.962Z,82.50
2022-12-18T02:04:18.519Z,82.50
2022-12-18T02:04:27.979Z,82.60
2022-12-18T02:04:37.963Z,82.60
2022-12-18T02:04:49.723Z,82.71
2022-12-18T02:04:57.970Z,82.71
2022-12-18T02:05:07.955Z,82.71
2022-12-18T02:05:17.967Z,82.81
2022-12-18T02:05:27.969Z,82.92
2022-12-18T02:05:37.971Z,83.14
2022-12-18T02:05:47.985Z,83.24
2022-12-18T02:05:57.971Z,83.35
2022-12-18T02:06:07.977Z,83.35
2022-12-18T02:06:17.979Z,83.45
2022-12-18T02:06:27.977Z,83.56
2022-12-18T02:06:37.977Z,83.67
2022-12-18T02:06:47.997Z,83.78
2022-12-18T02:06:57.980Z,83.99
2022-12-18T02:07:07.984Z,83.99
2022-12-18T02:07:17.983Z,83.99
2022-12-18T02:07:27.983Z,83.78
2022-12-18T02:07:37.986Z,83.45
2022-12-18T02:07:47.999Z,83.24
2022-12-18T02:07:57.985Z,82.92
2022-12-18T02:08:07.989Z,82.71
2022-12-18T02:08:17.989Z,82.39
2022-12-18T02:08:27.989Z,82.28
2022-12-18T02:08:37.991Z,82.17
2022-12-18T02:08:48.004Z,82.17
2022-12-18T02:08:57.992Z,82.32
2022-12-18T02:09:07.994Z,82.53